Poncha Springs, CO (81242)

4:40 PM MDT on August 30, 2015 (GMT -0600)
Elk Trail | | Change Station
CLOSE
Current Station
Personal Weather Station
Location: Salida, CO
Elevation: 8130 ft
Nearby Weather Stations

Elev 8130 ft 38.55 °N, 106.12 °W | Updated 2 minutes ago

Clear
Clear
79.3 °F
Feels Like 79 °F
N
11.0
Wind Variable Wind from South
Gusts 20.0 mph

Today
High -- | Low -- °F
--% Chance of Precip.
Yesterday
High -- | Low -- °F
Precip. -- in
6:31 AM 7:37 PM
Full, 98% visible
Pressure 30.26 in
Visibility 10.0 miles
Clouds Clear
Heat Index 79 °F
Dew Point 42 °F
Humidity 27%
Rainfall 0.00 in
Snow Depth Not available.
UV 4 out of 12
Pollen 10.80 out of 12
Air Quality Not available.
Flu Activity Not available.
METAR KANK 302235Z AUTO 17012G19KT 10SM CLR 29/01 A3026 RMK AO1 T02870012
Pressure 30.26 in
Visibility 10.0 miles
Clouds Clear
Heat Index 79 °F
Dew Point 42 °F
Humidity 27%
Rainfall 0.00 in
Snow Depth Not available.
UV 4 out of 12
Pollen 10.80 out of 12
Air Quality Not available.
Flu Activity Not available.
METAR KANK 302235Z AUTO 17012G19KT 10SM CLR 29/01 A3026 RMK AO1 T02870012

10-Day Weather Forecast

×

Almanac

Astronomy

Aug. 30, 2015 Rise Set
Actual Time
Civil Twilight
Nautical Twilight
Astronomical Twilight
Moon
Length of Visible Light
Length of Day
Tomorrow will be .
, % of the Moon is Illuminated

Today's Extremes

State Highs State Lows

Community

WunderPhotos

Upload Photos

1,851,075 photos uploaded!

WunderBlogs® & News

Nearby

Air Quality

  Air Quality AQ Index Pollutant
Not available.

Snow Depth

Station Depth Elevation

Earthquake Activity

City Distance Mag. Time & Date
Minimum magnitude displayed is 2.5.

Coastal Water Temperatures

Place Temperature

Stations

Nearby Weather Stations

Station Location Temp. Windchill Dew Point Humidity Wind Precip. Elev Updated Type